sensor_id;sensor_type;location;lat;lon;timestamp;temperature;humidity
5868;DHT22;2960;49.142;7.768;2023-09-12T00:02:01;21.90;64.60
5868;DHT22;2960;49.142;7.768;2023-09-12T00:04:29;21.90;64.70
5868;DHT22;2960;49.142;7.768;2023-09-12T00:06:57;21.80;64.60
5868;DHT22;2960;49.142;7.768;2023-09-12T00:09:24;21.80;64.60
5868;DHT22;2960;49.142;7.768;2023-09-12T00:11:51;21.80;64.70
5868;DHT22;2960;49.142;7.768;2023-09-12T00:14:19;21.80;64.80
5868;DHT22;2960;49.142;7.768;2023-09-12T00:16:46;21.70;64.70
5868;DHT22;2960;49.142;7.768;2023-09-12T00:19:13;21.70;64.80
5868;DHT22;2960;49.142;7.768;2023-09-12T00:21:40;21.70;64.80
5868;DHT22;2960;49.142;7.768;2023-09-12T00:24:09;21.70;64.90
5868;DHT22;2960;49.142;7.768;2023-09-12T00:26:36;21.60;64.80
5868;DHT22;2960;49.142;7.768;2023-09-12T00:29:03;21.60;64.90
5868;DHT22;2960;49.142;7.768;2023-09-12T00:31:31;21.60;65.00
5868;DHT22;2960;49.142;7.768;2023-09-12T00:33:58;21.60;65.00
5868;DHT22;2960;49.142;7.768;2023-09-12T00:36:25;21.60;65.00
5868;DHT22;2960;49.142;7.768;2023-09-12T00:38:52;21.50;65.00
5868;DHT22;2960;49.142;7.768;2023-09-12T00:41:20;21.50;65.00
5868;DHT22;2960;49.142;7.768;2023-09-12T00:43:47;21.50;65.00
5868;DHT22;2960;49.142;7.768;2023-09-12T00:46:18;21.50;65.00
5868;DHT22;2960;49.142;7.768;2023-09-12T00:48:46;21.50;65.00
5868;DHT22;2960;49.142;7.768;2023-09-12T00:51:15;21.40;64.80
5868;DHT22;2960;49.142;7.768;2023-09-12T00:53:43;21.40;65.00
5868;DHT22;2960;49.142;7.768;2023-09-12T00:56:10;21.40;65.10
5868;DHT22;2960;49.142;7.768;2023-09-12T00:58:39;21.40;65.10
5868;DHT22;2960;49.142;7.768;2023-09-12T01:01:07;21.40;65.20
5868;DHT22;2960;49.142;7.768;2023-09-12T01:03:35;21.30;65.00
5868;DHT22;2960;49.142;7.768;2023-09-12T01:06:02;21.30;65.10
5868;DHT22;2960;49.142;7.768;2023-09-12T01:08:31;21.30;65.10
5868;DHT22;2960;49.142;7.768;2023-09-12T01:10:58;21.30;65.10
5868;DHT22;2960;49.142;7.768;2023-09-12T01:13:26;21.30;65.20
5868;DHT22;2960;49.142;7.768;2023-09-12T01:15:55;21.30;66.00
5868;DHT22;2960;49.142;7.768;2023-09-12T01:18:25;21.30;65.30
5868;DHT22;2960;49.142;7.768;2023-09-12T01:21:09;21.30;65.30
5868;DHT22;2960;49.142;7.768;2023-09-12T01:24:03;21.20;65.20
5868;DHT22;2960;49.142;7.768;2023-09-12T01:26:52;21.20;65.20
5868;DHT22;2960;49.142;7.768;2023-09-12T01:29:25;21.20;65.30
5868;DHT22;2960;49.142;7.768;2023-09-12T01:31:54;21.20;65.40
5868;DHT22;2960;49.142;7.768;2023-09-12T01:34:22;21.20;65.40
5868;DHT22;2960;49.142;7.768;2023-09-12T01:36:49;21.10;65.20
5868;DHT22;2960;49.142;7.768;2023-09-12T01:39:16;21.10;65.30
5868;DHT22;2960;49.142;7.768;2023-09-12T01:41:44;21.10;65.30
5868;DHT22;2960;49.142;7.768;2023-09-12T01:44:14;21.10;65.40
5868;DHT22;2960;49.142;7.768;2023-09-12T01:46:43;21.10;65.50
5868;DHT22;2960;49.142;7.768;2023-09-12T01:49:11;21.10;65.50
5868;DHT22;2960;49.142;7.768;2023-09-12T01:51:39;21.10;65.60
5868;DHT22;2960;49.142;7.768;2023-09-12T01:54:07;21.00;65.70
5868;DHT22;2960;49.142;7.768;2023-09-12T01:56:35;21.00;65.90
5868;DHT22;2960;49.142;7.768;2023-09-12T01:59:02;21.00;66.10
5868;DHT22;2960;49.142;7.768;2023-09-12T02:01:29;21.00;66.10
5868;DHT22;2960;49.142;7.768;2023-09-12T02:03:58;21.00;66.10
5868;DHT22;2960;49.142;7.768;2023-09-12T02:06:25;20.90;66.10
5868;DHT22;2960;49.142;7.768;2023-09-12T02:08:52;20.90;66.10
5868;DHT22;2960;49.142;7.768;2023-09-12T02:11:19;20.90;66.10
5868;DHT22;2960;49.142;7.768;2023-09-12T02:13:46;20.90;67.00
5868;DHT22;2960;49.142;7.768;2023-09-12T02:16:13;20.90;66.30
5868;DHT22;2960;49.142;7.768;2023-09-12T02:18:40;20.90;67.00
5868;DHT22;2960;49.142;7.768;2023-09-12T02:21:09;20.90;66.30
5868;DHT22;2960;49.142;7.768;2023-09-12T02:23:36;20.90;66.30
5868;DHT22;2960;49.142;7.768;2023-09-12T02:26:03;20.90;66.30
5868;DHT22;2960;49.142;7.768;2023-09-12T02:28:30;20.90;66.40
5868;DHT22;2960;49.142;7.768;2023-09-12T02:30:57;20.90;66.40
5868;DHT22;2960;49.142;7.768;2023-09-12T02:33:24;20.90;66.40
5868;DHT22;2960;49.142;7.768;2023-09-12T02:35:51;20.90;67.20
5868;DHT22;2960;49.142;7.768;2023-09-12T02:38:19;20.90;66.40
5868;DHT22;2960;49.142;7.768;2023-09-12T02:40:49;20.90;66.50
5868;DHT22;2960;49.142;7.768;2023-09-12T02:43:20;20.90;66.40
5868;DHT22;2960;49.142;7.768;2023-09-12T02:45:47;20.90;66.40
5868;DHT22;2960;49.142;7.768;2023-09-12T02:48:14;20.90;66.50
5868;DHT22;2960;49.142;7.768;2023-09-12T02:50:41;20.90;66.50
5868;DHT22;2960;49.142;7.768;2023-09-12T02:53:09;20.90;66.50
5868;DHT22;2960;49.142;7.768;2023-09-12T02:55:41;20.90;66.60
5868;DHT22;2960;49.142;7.768;2023-09-12T02:58:09;20.90;66.70
5868;DHT22;2960;49.142;7.768;2023-09-12T03:00:38;20.90;67.50
5868;DHT22;2960;49.142;7.768;2023-09-12T03:03:06;20.90;67.60
5868;DHT22;2960;49.142;7.768;2023-09-12T03:05:34;20.90;66.90
5868;DHT22;2960;49.142;7.768;2023-09-12T03:08:01;20.90;67.00
5868;DHT22;2960;49.142;7.768;2023-09-12T03:10:29;20.90;67.10
5868;DHT22;2960;49.142;7.768;2023-09-12T03:12:58;20.90;67.20
5868;DHT22;2960;49.142;7.768;2023-09-12T03:15:25;20.80;67.10
5868;DHT22;2960;49.142;7.768;2023-09-12T03:17:52;20.80;67.20
5868;DHT22;2960;49.142;7.768;2023-09-12T03:20:19;20.80;68.10
5868;DHT22;2960;49.142;7.768;2023-09-12T03:22:46;20.80;68.10
5868;DHT22;2960;49.142;7.768;2023-09-12T03:25:13;20.80;67.40
5868;DHT22;2960;49.142;7.768;2023-09-12T03:27:40;20.80;67.50
5868;DHT22;2960;49.142;7.768;2023-09-12T03:30:10;20.70;67.50
5868;DHT22;2960;49.142;7.768;2023-09-12T03:32:37;20.70;67.50
5868;DHT22;2960;49.142;7.768;2023-09-12T03:35:05;20.70;67.60
5868;DHT22;2960;49.142;7.768;2023-09-12T03:37:33;20.70;67.70
5868;DHT22;2960;49.142;7.768;2023-09-12T03:40:00;20.70;67.70
5868;DHT22;2960;49.142;7.768;2023-09-12T03:42:29;20.70;67.80
5868;DHT22;2960;49.142;7.768;2023-09-12T03:44:57;20.70;67.80
5868;DHT22;2960;49.142;7.768;2023-09-12T03:47:25;20.60;67.80
5868;DHT22;2960;49.142;7.768;2023-09-12T03:49:52;20.60;67.90
5868;DHT22;2960;49.142;7.768;2023-09-12T03:52:19;20.60;67.90
5868;DHT22;2960;49.142;7.768;2023-09-12T03:54:46;20.60;67.90
5868;DHT22;2960;49.142;7.768;2023-09-12T03:57:13;20.60;68.00
5868;DHT22;2960;49.142;7.768;2023-09-12T03:59:40;20.60;68.00
5868;DHT22;2960;49.142;7.768;2023-09-12T04:02:08;20.60;68.00
5868;DHT22;2960;49.142;7.768;2023-09-12T04:04:37;20.50;67.90
5868;DHT22;2960;49.142;7.768;2023-09-12T04:07:04;20.50;67.90
5868;DHT22;2960;49.142;7.768;2023-09-12T04:09:32;20.50;68.00
5868;DHT22;2960;49.142;7.768;2023-09-12T04:11:59;20.50;68.10
5868;DHT22;2960;49.142;7.768;2023-09-12T04:14:27;20.50;68.10
5868;DHT22;2960;49.142;7.768;2023-09-12T04:16:54;20.50;68.10
5868;DHT22;2960;49.142;7.768;2023-09-12T04:19:21;20.50;68.10
5868;DHT22;2960;49.142;7.768;2023-09-12T04:21:49;20.50;68.20
5868;DHT22;2960;49.142;7.768;2023-09-12T04:24:17;20.40;68.00
5868;DHT22;2960;49.142;7.768;2023-09-12T04:26:44;20.40;68.10
5868;DHT22;2960;49.142;7.768;2023-09-12T04:29:11;20.40;68.10
5868;DHT22;2960;49.142;7.768;2023-09-12T04:31:38;20.40;68.30
5868;DHT22;2960;49.142;7.768;2023-09-12T04:34:05;20.30;68.20
5868;DHT22;2960;49.142;7.768;2023-09-12T04:36:33;20.30;68.20
5868;DHT22;2960;49.142;7.768;2023-09-12T04:39:02;20.30;68.30
5868;DHT22;2960;49.142;7.768;2023-09-12T04:41:30;20.30;68.40
5868;DHT22;2960;49.142;7.768;2023-09-12T04:43:57;20.20;68.30
5868;DHT22;2960;49.142;7.768;2023-09-12T04:46:26;20.20;68.30
5868;DHT22;2960;49.142;7.768;2023-09-12T04:48:54;20.20;68.30
5868;DHT22;2960;49.142;7.768;2023-09-12T04:51:21;20.20;68.20
5868;DHT22;2960;49.142;7.768;2023-09-12T04:53:48;20.20;68.30
5868;DHT22;2960;49.142;7.768;2023-09-12T04:56:18;20.20;68.20
5868;DHT22;2960;49.142;7.768;2023-09-12T04:58:45;20.10;68.90
5868;DHT22;2960;49.142;7.768;2023-09-12T05:01:13;20.10;68.00
5868;DHT22;2960;49.142;7.768;2023-09-12T05:03:41;20.10;68.00
5868;DHT22;2960;49.142;7.768;2023-09-12T05:06:09;20.10;68.00
5868;DHT22;2960;49.142;7.768;2023-09-12T05:08:36;20.10;68.10
5868;DHT22;2960;49.142;7.768;2023-09-12T05:11:04;20.00;68.00
5868;DHT22;2960;49.142;7.768;2023-09-12T05:13:32;20.00;68.00
5868;DHT22;2960;49.142;7.768;2023-09-12T05:15:59;20.00;68.00
5868;DHT22;2960;49.142;7.768;2023-09-12T05:18:26;20.00;68.20
5868;DHT22;2960;49.142;7.768;2023-09-12T05:20:54;20.00;68.20
5868;DHT22;2960;49.142;7.768;2023-09-12T05:23:21;19.90;68.10
5868;DHT22;2960;49.142;7.768;2023-09-12T05:25:48;19.90;68.20
5868;DHT22;2960;49.142;7.768;2023-09-12T05:28:15;19.90;68.20
5868;DHT22;2960;49.142;7.768;2023-09-12T05:30:43;19.90;68.30
5868;DHT22;2960;49.142;7.768;2023-09-12T05:33:10;19.80;68.30
5868;DHT22;2960;49.142;7.768;2023-09-12T05:35:37;19.80;68.30
5868;DHT22;2960;49.142;7.768;2023-09-12T05:38:05;19.90;68.30
5868;DHT22;2960;49.142;7.768;2023-09-12T05:40:33;19.80;68.20
5868;DHT22;2960;49.142;7.768;2023-09-12T05:43:00;19.80;68.30
5868;DHT22;2960;49.142;7.768;2023-09-12T05:45:27;19.90;68.40
5868;DHT22;2960;49.142;7.768;2023-09-12T05:47:56;19.90;68.40
5868;DHT22;2960;49.142;7.768;2023-09-12T05:50:23;19.90;68.40
5868;DHT22;2960;49.142;7.768;2023-09-12T05:52:51;20.00;68.40
5868;DHT22;2960;49.142;7.768;2023-09-12T05:55:18;20.00;68.30
5868;DHT22;2960;49.142;7.768;2023-09-12T05:57:45;20.00;68.30
5868;DHT22;2960;49.142;7.768;2023-09-12T06:00:14;20.10;68.40
5868;DHT22;2960;49.142;7.768;2023-09-12T06:02:41;20.10;68.40
5868;DHT22;2960;49.142;7.768;2023-09-12T06:05:10;20.20;68.40
5868;DHT22;2960;49.142;7.768;2023-09-12T06:07:37;20.20;69.30
5868;DHT22;2960;49.142;7.768;2023-09-12T06:10:06;20.20;68.50
5868;DHT22;2960;49.142;7.768;2023-09-12T06:12:34;20.20;68.60
5868;DHT22;2960;49.142;7.768;2023-09-12T06:15:02;20.20;68.60
5868;DHT22;2960;49.142;7.768;2023-09-12T06:17:29;20.30;68.60
5868;DHT22;2960;49.142;7.768;2023-09-12T06:19:57;20.30;68.50
5868;DHT22;2960;49.142;7.768;2023-09-12T06:22:25;20.40;69.40
5868;DHT22;2960;49.142;7.768;2023-09-12T06:24:53;20.40;68.50
5868;DHT22;2960;49.142;7.768;2023-09-12T06:27:20;20.50;68.60
5868;DHT22;2960;49.142;7.768;2023-09-12T06:29:47;20.60;68.60
5868;DHT22;2960;49.142;7.768;2023-09-12T06:32:15;20.60;68.50
5868;DHT22;2960;49.142;7.768;2023-09-12T06:34:45;20.70;68.40
5868;DHT22;2960;49.142;7.768;2023-09-12T06:37:13;20.80;68.40
5868;DHT22;2960;49.142;7.768;2023-09-12T06:39:42;20.80;68.30
5868;DHT22;2960;49.142;7.768;2023-09-12T06:42:09;20.80;68.30
5868;DHT22;2960;49.142;7.768;2023-09-12T06:44:36;20.90;68.50
5868;DHT22;2960;49.142;7.768;2023-09-12T06:47:04;21.00;68.50
5868;DHT22;2960;49.142;7.768;2023-09-12T06:49:32;21.10;68.50
5868;DHT22;2960;49.142;7.768;2023-09-12T06:52:01;21.20;68.50
5868;DHT22;2960;49.142;7.768;2023-09-12T06:54:29;21.30;68.50
5868;DHT22;2960;49.142;7.768;2023-09-12T06:56:57;21.40;68.50
5868;DHT22;2960;49.142;7.768;2023-09-12T06:59:24;21.50;69.20
5868;DHT22;2960;49.142;7.768;2023-09-12T07:01:51;21.60;68.30
5868;DHT22;2960;49.142;7.768;2023-09-12T07:04:19;21.60;68.30
5868;DHT22;2960;49.142;7.768;2023-09-12T07:06:46;21.70;68.40
5868;DHT22;2960;49.142;7.768;2023-09-12T07:09:13;21.80;68.40
5868;DHT22;2960;49.142;7.768;2023-09-12T07:11:40;21.90;69.20
5868;DHT22;2960;49.142;7.768;2023-09-12T07:14:09;22.00;68.40
5868;DHT22;2960;49.142;7.768;2023-09-12T07:16:37;22.10;68.40
5868;DHT22;2960;49.142;7.768;2023-09-12T07:19:04;22.20;68.50
5868;DHT22;2960;49.142;7.768;2023-09-12T07:21:31;22.30;68.60
5868;DHT22;2960;49.142;7.768;2023-09-12T07:23:58;22.40;68.60
5868;DHT22;2960;49.142;7.768;2023-09-12T07:26:26;22.50;68.60
5868;DHT22;2960;49.142;7.768;2023-09-12T07:28:53;22.70;68.60
5868;DHT22;2960;49.142;7.768;2023-09-12T07:31:21;22.80;68.60
5868;DHT22;2960;49.142;7.768;2023-09-12T07:33:49;22.80;68.50
5868;DHT22;2960;49.142;7.768;2023-09-12T07:36:16;22.90;68.50
5868;DHT22;2960;49.142;7.768;2023-09-12T07:38:44;23.00;68.60
5868;DHT22;2960;49.142;7.768;2023-09-12T07:41:12;23.20;68.60
5868;DHT22;2960;49.142;7.768;2023-09-12T07:43:39;23.30;69.40
5868;DHT22;2960;49.142;7.768;2023-09-12T07:46:07;23.40;68.60
5868;DHT22;2960;49.142;7.768;2023-09-12T07:48:35;23.50;68.70
5868;DHT22;2960;49.142;7.768;2023-09-12T07:51:11;23.60;68.60
5868;DHT22;2960;49.142;7.768;2023-09-12T07:53:40;23.80;68.70
5868;DHT22;2960;49.142;7.768;2023-09-12T07:56:08;23.80;68.60
5868;DHT22;2960;49.142;7.768;2023-09-12T07:58:36;24.00;68.60
5868;DHT22;2960;49.142;7.768;2023-09-12T08:01:07;24.10;68.50
5868;DHT22;2960;49.142;7.768;2023-09-12T08:03:37;24.20;68.40
5868;DHT22;2960;49.142;7.768;2023-09-12T08:06:05;24.30;68.30
5868;DHT22;2960;49.142;7.768;2023-09-12T08:08:32;24.40;68.20
5868;DHT22;2960;49.142;7.768;2023-09-12T08:10:59;24.40;68.10
5868;DHT22;2960;49.142;7.768;2023-09-12T08:13:28;24.50;68.10
5868;DHT22;2960;49.142;7.768;2023-09-12T08:15:56;24.70;68.20
5868;DHT22;2960;49.142;7.768;2023-09-12T08:18:27;24.80;68.00
5868;DHT22;2960;49.142;7.768;2023-09-12T08:20:57;25.00;68.10
5868;DHT22;2960;49.142;7.768;2023-09-12T08:23:28;25.10;67.80
5868;DHT22;2960;49.142;7.768;2023-09-12T08:25:55;25.30;67.60
5868;DHT22;2960;49.142;7.768;2023-09-12T08:28:22;25.40;67.40
5868;DHT22;2960;49.142;7.768;2023-09-12T08:30:49;25.50;67.10
5868;DHT22;2960;49.142;7.768;2023-09-12T08:33:16;25.70;66.90
5868;DHT22;2960;49.142;7.768;2023-09-12T08:35:43;25.80;66.70
5868;DHT22;2960;49.142;7.768;2023-09-12T08:38:12;26.00;66.30
5868;DHT22;2960;49.142;7.768;2023-09-12T08:40:39;26.10;66.10
5868;DHT22;2960;49.142;7.768;2023-09-12T08:43:07;26.20;65.80
5868;DHT22;2960;49.142;7.768;2023-09-12T08:45:35;26.20;65.60
5868;DHT22;2960;49.142;7.768;2023-09-12T08:48:04;26.30;65.60
5868;DHT22;2960;49.142;7.768;2023-09-12T08:50:32;26.40;65.50
5868;DHT22;2960;49.142;7.768;2023-09-12T08:53:00;26.50;65.40
5868;DHT22;2960;49.142;7.768;2023-09-12T08:55:28;26.70;65.30
5868;DHT22;2960;49.142;7.768;2023-09-12T08:57:57;26.80;65.10
5868;DHT22;2960;49.142;7.768;2023-09-12T09:00:26;27.00;65.00
5868;DHT22;2960;49.142;7.768;2023-09-12T09:02:53;27.10;64.80
5868;DHT22;2960;49.142;7.768;2023-09-12T09:05:22;27.20;64.50
5868;DHT22;2960;49.142;7.768;2023-09-12T09:07:54;27.40;64.30
5868;DHT22;2960;49.142;7.768;2023-09-12T09:10:23;27.60;65.00
5868;DHT22;2960;49.142;7.768;2023-09-12T09:12:51;27.70;64.00
5868;DHT22;2960;49.142;7.768;2023-09-12T09:15:23;27.80;63.90
5868;DHT22;2960;49.142;7.768;2023-09-12T09:17:52;27.90;63.70
5868;DHT22;2960;49.142;7.768;2023-09-12T09:20:28;28.00;63.50
5868;DHT22;2960;49.142;7.768;2023-09-12T09:23:01;28.20;63.40
5868;DHT22;2960;49.142;7.768;2023-09-12T09:25:36;28.20;63.30
5868;DHT22;2960;49.142;7.768;2023-09-12T09:28:18;28.40;63.20
5868;DHT22;2960;49.142;7.768;2023-09-12T09:30:46;28.50;62.80
5868;DHT22;2960;49.142;7.768;2023-09-12T09:33:14;28.60;62.60
5868;DHT22;2960;49.142;7.768;2023-09-12T09:35:45;28.70;62.50
5868;DHT22;2960;49.142;7.768;2023-09-12T09:38:13;28.80;62.40
5868;DHT22;2960;49.142;7.768;2023-09-12T09:40:42;28.90;62.10
5868;DHT22;2960;49.142;7.768;2023-09-12T09:43:11;29.00;61.90
5868;DHT22;2960;49.142;7.768;2023-09-12T09:45:44;29.10;61.70
5868;DHT22;2960;49.142;7.768;2023-09-12T09:48:18;29.20;61.40
5868;DHT22;2960;49.142;7.768;2023-09-12T09:50:46;29.30;61.10
5868;DHT22;2960;49.142;7.768;2023-09-12T09:53:13;29.40;60.70
5868;DHT22;2960;49.142;7.768;2023-09-12T09:55:40;29.50;60.50
5868;DHT22;2960;49.142;7.768;2023-09-12T09:58:08;29.60;60.30
5868;DHT22;2960;49.142;7.768;2023-09-12T10:00:37;29.80;60.10
5868;DHT22;2960;49.142;7.768;2023-09-12T10:03:05;29.90;59.90
5868;DHT22;2960;49.142;7.768;2023-09-12T10:05:32;30.00;59.70
5868;DHT22;2960;49.142;7.768;2023-09-12T10:08:00;30.10;59.50
5868;DHT22;2960;49.142;7.768;2023-09-12T10:10:31;30.20;59.90
5868;DHT22;2960;49.142;7.768;2023-09-12T10:13:03;30.40;59.10
5868;DHT22;2960;49.142;7.768;2023-09-12T10:15:30;30.50;59.00
5868;DHT22;2960;49.142;7.768;2023-09-12T10:18:04;30.70;58.90
5868;DHT22;2960;49.142;7.768;2023-09-12T10:20:41;30.80;58.40
5868;DHT22;2960;49.142;7.768;2023-09-12T10:23:14;30.90;58.10
5868;DHT22;2960;49.142;7.768;2023-09-12T10:25:48;31.00;58.00
5868;DHT22;2960;49.142;7.768;2023-09-12T10:28:17;31.00;57.80
5868;DHT22;2960;49.142;7.768;2023-09-12T10:30:44;31.20;57.70
5868;DHT22;2960;49.142;7.768;2023-09-12T10:33:15;31.20;57.40
5868;DHT22;2960;49.142;7.768;2023-09-12T10:35:45;31.30;57.30
5868;DHT22;2960;49.142;7.768;2023-09-12T10:38:13;31.40;57.80
5868;DHT22;2960;49.142;7.768;2023-09-12T10:40:44;31.40;57.00
5868;DHT22;2960;49.142;7.768;2023-09-12T10:43:13;31.50;57.00
5868;DHT22;2960;49.142;7.768;2023-09-12T10:45:41;31.60;56.80
5868;DHT22;2960;49.142;7.768;2023-09-12T10:48:09;31.60;56.50
5868;DHT22;2960;49.142;7.768;2023-09-12T10:50:39;31.70;56.20
5868;DHT22;2960;49.142;7.768;2023-09-12T10:53:11;31.70;56.20
5868;DHT22;2960;49.142;7.768;2023-09-12T10:55:38;31.70;55.50
5868;DHT22;2960;49.142;7.768;2023-09-12T10:58:07;31.70;55.50
5868;DHT22;2960;49.142;7.768;2023-09-12T11:00:36;31.70;55.30
5868;DHT22;2960;49.142;7.768;2023-09-12T11:03:36;31.80;55.20
5868;DHT22;2960;49.142;7.768;2023-09-12T11:06:20;31.80;55.10
5868;DHT22;2960;49.142;7.768;2023-09-12T11:09:16;31.80;55.00
5868;DHT22;2960;49.142;7.768;2023-09-12T11:11:46;31.90;55.00
5868;DHT22;2960;49.142;7.768;2023-09-12T11:14:14;31.90;54.70
5868;DHT22;2960;49.142;7.768;2023-09-12T11:16:42;31.90;54.60
5868;DHT22;2960;49.142;7.768;2023-09-12T11:19:15;32.00;54.60
5868;DHT22;2960;49.142;7.768;2023-09-12T11:21:45;32.00;54.20
5868;DHT22;2960;49.142;7.768;2023-09-12T11:24:13;32.00;54.20
5868;DHT22;2960;49.142;7.768;2023-09-12T11:26:57;32.10;54.20
5868;DHT22;2960;49.142;7.768;2023-09-12T11:29:29;32.10;53.90
5868;DHT22;2960;49.142;7.768;2023-09-12T11:32:01;32.10;53.80
5868;DHT22;2960;49.142;7.768;2023-09-12T11:34:35;32.20;53.90
5868;DHT22;2960;49.142;7.768;2023-09-12T11:37:06;32.30;53.90
5868;DHT22;2960;49.142;7.768;2023-09-12T11:39:35;32.30;53.70
5868;DHT22;2960;49.142;7.768;2023-09-12T11:42:04;32.30;53.70
5868;DHT22;2960;49.142;7.768;2023-09-12T11:44:34;32.40;53.70
5868;DHT22;2960;49.142;7.768;2023-09-12T11:47:02;32.40;53.60
5868;DHT22;2960;49.142;7.768;2023-09-12T11:49:35;32.50;53.50
5868;DHT22;2960;49.142;7.768;2023-09-12T11:52:07;32.50;53.10
5868;DHT22;2960;49.142;7.768;2023-09-12T11:54:36;32.60;52.90
5868;DHT22;2960;49.142;7.768;2023-09-12T11:57:04;32.60;52.60
5868;DHT22;2960;49.142;7.768;2023-09-12T11:59:31;32.60;52.30
5868;DHT22;2960;49.142;7.768;2023-09-12T12:01:58;32.60;52.20
5868;DHT22;2960;49.142;7.768;2023-09-12T12:04:25;32.60;52.20
5868;DHT22;2960;49.142;7.768;2023-09-12T12:06:53;32.60;52.10
5868;DHT22;2960;49.142;7.768;2023-09-12T12:09:21;32.70;52.10
5868;DHT22;2960;49.142;7.768;2023-09-12T12:11:48;32.80;52.00
5868;DHT22;2960;49.142;7.768;2023-09-12T12:14:17;32.80;51.90
5868;DHT22;2960;49.142;7.768;2023-09-12T12:16:46;32.80;51.60
5868;DHT22;2960;49.142;7.768;2023-09-12T12:19:14;32.90;51.50
5868;DHT22;2960;49.142;7.768;2023-09-12T12:21:42;33.00;51.40
5868;DHT22;2960;49.142;7.768;2023-09-12T12:24:11;33.00;51.30
5868;DHT22;2960;49.142;7.768;2023-09-12T12:26:42;32.90;51.10
5868;DHT22;2960;49.142;7.768;2023-09-12T12:29:09;33.00;51.10
5868;DHT22;2960;49.142;7.768;2023-09-12T12:31:39;33.00;50.90
5868;DHT22;2960;49.142;7.768;2023-09-12T12:34:06;33.00;50.30
5868;DHT22;2960;49.142;7.768;2023-09-12T12:36:36;33.00;50.30
5868;DHT22;2960;49.142;7.768;2023-09-12T12:39:10;33.00;49.80
5868;DHT22;2960;49.142;7.768;2023-09-12T12:41:38;33.00;49.70
5868;DHT22;2960;49.142;7.768;2023-09-12T12:44:06;33.00;49.70
5868;DHT22;2960;49.142;7.768;2023-09-12T12:46:34;33.00;49.60
5868;DHT22;2960;49.142;7.768;2023-09-12T12:49:01;33.00;49.40
5868;DHT22;2960;49.142;7.768;2023-09-12T12:51:29;33.00;49.20
5868;DHT22;2960;49.142;7.768;2023-09-12T12:54:05;33.00;49.10
5868;DHT22;2960;49.142;7.768;2023-09-12T12:56:33;33.00;49.20
5868;DHT22;2960;49.142;7.768;2023-09-12T12:59:03;33.00;49.10
5868;DHT22;2960;49.142;7.768;2023-09-12T13:01:34;33.00;49.00
5868;DHT22;2960;49.142;7.768;2023-09-12T13:04:04;33.10;49.00
5868;DHT22;2960;49.142;7.768;2023-09-12T13:06:32;33.10;49.00
5868;DHT22;2960;49.142;7.768;2023-09-12T13:09:03;33.20;49.00
5868;DHT22;2960;49.142;7.768;2023-09-12T13:11:31;33.20;48.80
5868;DHT22;2960;49.142;7.768;2023-09-12T13:14:00;33.20;48.40
5868;DHT22;2960;49.142;7.768;2023-09-12T13:16:36;33.20;48.20
5868;DHT22;2960;49.142;7.768;2023-09-12T13:19:04;33.20;48.00
5868;DHT22;2960;49.142;7.768;2023-09-12T13:21:32;33.30;48.30
5868;DHT22;2960;49.142;7.768;2023-09-12T13:23:59;33.30;47.60
5868;DHT22;2960;49.142;7.768;2023-09-12T13:26:27;33.20;47.50
5868;DHT22;2960;49.142;7.768;2023-09-12T13:28:54;33.30;47.30
5868;DHT22;2960;49.142;7.768;2023-09-12T13:31:21;33.20;46.50
5868;DHT22;2960;49.142;7.768;2023-09-12T13:33:50;33.20;46.70
5868;DHT22;2960;49.142;7.768;2023-09-12T13:36:18;33.20;46.50
5868;DHT22;2960;49.142;7.768;2023-09-12T13:38:45;33.20;46.40
5868;DHT22;2960;49.142;7.768;2023-09-12T13:41:14;33.20;46.60
5868;DHT22;2960;49.142;7.768;2023-09-12T13:43:41;33.10;46.60
5868;DHT22;2960;49.142;7.768;2023-09-12T13:46:10;33.10;46.60
5868;DHT22;2960;49.142;7.768;2023-09-12T13:48:38;33.10;46.70
5868;DHT22;2960;49.142;7.768;2023-09-12T13:51:06;33.00;46.60
5868;DHT22;2960;49.142;7.768;2023-09-12T13:53:34;33.00;46.50
5868;DHT22;2960;49.142;7.768;2023-09-12T13:56:01;32.90;46.50
5868;DHT22;2960;49.142;7.768;2023-09-12T13:58:28;32.80;46.60
5868;DHT22;2960;49.142;7.768;2023-09-12T14:00:55;32.80;46.70
5868;DHT22;2960;49.142;7.768;2023-09-12T14:03:23;32.80;47.10
5868;DHT22;2960;49.142;7.768;2023-09-12T14:05:50;32.70;47.20
5868;DHT22;2960;49.142;7.768;2023-09-12T14:08:18;32.60;47.00
5868;DHT22;2960;49.142;7.768;2023-09-12T14:10:46;32.60;47.00
5868;DHT22;2960;49.142;7.768;2023-09-12T14:13:13;32.50;47.10
5868;DHT22;2960;49.142;7.768;2023-09-12T14:15:40;32.40;47.10
5868;DHT22;2960;49.142;7.768;2023-09-12T14:18:07;32.40;47.20
5868;DHT22;2960;49.142;7.768;2023-09-12T14:20:34;32.30;47.20
5868;DHT22;2960;49.142;7.768;2023-09-12T14:23:01;32.20;47.40
5868;DHT22;2960;49.142;7.768;2023-09-12T14:25:30;32.20;47.60
5868;DHT22;2960;49.142;7.768;2023-09-12T14:27:57;32.10;47.70
5868;DHT22;2960;49.142;7.768;2023-09-12T14:30:24;32.10;47.90
5868;DHT22;2960;49.142;7.768;2023-09-12T14:32:59;32.00;48.10
5868;DHT22;2960;49.142;7.768;2023-09-12T14:35:26;32.00;48.50
5868;DHT22;2960;49.142;7.768;2023-09-12T14:37:53;31.90;48.60
5868;DHT22;2960;49.142;7.768;2023-09-12T14:40:20;31.90;49.40
5868;DHT22;2960;49.142;7.768;2023-09-12T14:42:49;31.90;48.90
5868;DHT22;2960;49.142;7.768;2023-09-12T14:45:16;31.80;48.90
5868;DHT22;2960;49.142;7.768;2023-09-12T14:47:44;31.80;49.10
5868;DHT22;2960;49.142;7.768;2023-09-12T14:50:11;31.70;49.20
5868;DHT22;2960;49.142;7.768;2023-09-12T14:52:38;31.70;49.40
5868;DHT22;2960;49.142;7.768;2023-09-12T14:55:06;31.70;49.70
5868;DHT22;2960;49.142;7.768;2023-09-12T14:57:34;31.70;49.80
5868;DHT22;2960;49.142;7.768;2023-09-12T15:00:04;31.60;49.80
5868;DHT22;2960;49.142;7.768;2023-09-12T15:02:32;31.60;49.70
5868;DHT22;2960;49.142;7.768;2023-09-12T15:04:59;31.60;49.60
5868;DHT22;2960;49.142;7.768;2023-09-12T15:07:27;31.50;49.60
5868;DHT22;2960;49.142;7.768;2023-09-12T15:09:55;31.50;49.40
5868;DHT22;2960;49.142;7.768;2023-09-12T15:12:22;31.50;49.40
5868;DHT22;2960;49.142;7.768;2023-09-12T15:14:49;31.40;49.40
5868;DHT22;2960;49.142;7.768;2023-09-12T15:17:18;31.40;49.30
5868;DHT22;2960;49.142;7.768;2023-09-12T15:19:45;31.40;49.30
5868;DHT22;2960;49.142;7.768;2023-09-12T15:22:13;31.30;49.30
5868;DHT22;2960;49.142;7.768;2023-09-12T15:24:40;31.30;49.90
5868;DHT22;2960;49.142;7.768;2023-09-12T15:27:07;31.30;49.40
5868;DHT22;2960;49.142;7.768;2023-09-12T15:29:34;31.20;50.10
5868;DHT22;2960;49.142;7.768;2023-09-12T15:32:02;31.20;49.60
5868;DHT22;2960;49.142;7.768;2023-09-12T15:34:32;31.20;49.80
5868;DHT22;2960;49.142;7.768;2023-09-12T15:37:07;31.10;49.80
5868;DHT22;2960;49.142;7.768;2023-09-12T15:39:35;31.10;50.20
5868;DHT22;2960;49.142;7.768;2023-09-12T15:42:02;31.10;51.00
5868;DHT22;2960;49.142;7.768;2023-09-12T15:44:29;31.00;50.70
5868;DHT22;2960;49.142;7.768;2023-09-12T15:46:57;31.00;50.90
5868;DHT22;2960;49.142;7.768;2023-09-12T15:49:24;30.90;51.00
5868;DHT22;2960;49.142;7.768;2023-09-12T15:51:52;30.80;51.20
5868;DHT22;2960;49.142;7.768;2023-09-12T15:54:19;30.70;51.40
5868;DHT22;2960;49.142;7.768;2023-09-12T15:56:47;30.70;52.30
5868;DHT22;2960;49.142;7.768;2023-09-12T15:59:14;30.60;51.90
5868;DHT22;2960;49.142;7.768;2023-09-12T16:01:41;30.60;52.10
5868;DHT22;2960;49.142;7.768;2023-09-12T16:04:08;30.60;52.20
5868;DHT22;2960;49.142;7.768;2023-09-12T16:06:35;30.50;52.10
5868;DHT22;2960;49.142;7.768;2023-09-12T16:09:04;30.50;52.90
5868;DHT22;2960;49.142;7.768;2023-09-12T16:11:31;30.50;52.30